Time;durP1;ratioP1;P1;durP2;ratioP2;P2;SDS_P1;SDS_P2;PMS_P1;PMS_P2;Temp;Humidity;BMP_temperature;BMP_pressure;BME280_temperature;BME280_humidity;BME280_pressure;Samples;Min_cycle;Max_cycle;Signal;HPM_P1;HPM_P2
2023/07/19 00:00:10;;;;;;;1.92;1.17;;;;;;;23.70;62.11;99176.72;336257;28;4799;-65
2023/07/19 00:00:23;;;;;;;2.50;1.00;;;;;;;23.71;62.16;99173.06;333211;28;17914;-65
2023/07/19 00:00:34;;;;;;;2.40;1.00;;;;;;;23.70;62.41;99170.56;335671;28;5812;-65
2023/07/19 00:00:47;;;;;;;1.63;1.00;;;;;;;23.72;62.10;99173.91;333464;28;18526;-66
2023/07/19 00:00:59;;;;;;;2.00;1.10;;;;;;;23.72;61.87;99168.59;336117;28;4718;-65
2023/07/19 00:01:11;;;;;;;3.10;1.30;;;;;;;23.72;62.14;99168.59;335949;28;4573;-65
2023/07/19 00:01:23;;;;;;;2.40;1.20;;;;;;;23.72;62.66;99173.91;333651;28;18021;-64
2023/07/19 00:01:35;;;;;;;1.58;1.17;;;;;;;23.71;62.19;99166.94;335888;28;4707;-65
2023/07/19 00:01:47;;;;;;;1.70;1.10;;;;;;;23.72;62.33;99171.25;333046;28;18377;-65
2023/07/19 00:02:00;;;;;;;1.48;1.30;;;;;;;23.71;62.36;99173.06;336090;28;5049;-64
2023/07/19 00:02:12;;;;;;;1.52;1.35;;;;;;;23.71;62.08;99172.25;332939;28;17139;-65
2023/07/19 00:02:25;;;;;;;1.40;1.30;;;;;;;23.70;62.20;99166.13;336120;29;4653;-64
2023/07/19 00:02:37;;;;;;;2.30;1.30;;;;;;;23.70;62.08;99167.91;335036;29;16569;-64
2023/07/19 00:02:49;;;;;;;2.50;1.40;;;;;;;23.69;61.84;99174.22;332675;28;18391;-65
2023/07/19 00:03:01;;;;;;;2.55;1.38;;;;;;;23.66;62.59;99171.84;335417;29;4689;-65
2023/07/19 00:03:13;;;;;;;1.92;1.23;;;;;;;23.62;63.12;99173.94;332878;28;18773;-64
2023/07/19 00:03:25;;;;;;;1.50;1.08;;;;;;;23.59;63.01;99173.41;335965;28;5681;-64
2023/07/19 00:03:37;;;;;;;1.58;1.00;;;;;;;23.57;62.74;99168.25;336203;28;5014;-65
2023/07/19 00:03:49;;;;;;;1.63;1.00;;;;;;;23.56;62.72;99169.22;332875;28;17742;-65
2023/07/19 00:04:01;;;;;;;1.70;1.00;;;;;;;23.55;63.18;99166.72;335400;29;4519;-64
2023/07/19 00:04:13;;;;;;;1.40;1.10;;;;;;;23.55;62.67;99167.56;335773;29;17878;-65
2023/07/19 00:04:25;;;;;;;1.40;1.17;;;;;;;23.55;62.70;99170.22;328734;28;18518;-64
2023/07/19 00:04:37;;;;;;;1.35;1.02;;;;;;;23.55;62.61;99166.72;336252;29;4983;-65
2023/07/19 00:04:49;;;;;;;1.60;1.00;;;;;;;23.55;62.91;99167.56;329212;28;18202;-65
2023/07/19 00:05:01;;;;;;;1.40;1.00;;;;;;;23.54;62.74;99160.56;335988;28;4608;-64
2023/07/19 00:05:13;;;;;;;1.25;0.95;;;;;;;23.52;63.08;99168.69;334336;29;5604;-64
2023/07/19 00:05:25;;;;;;;1.15;0.90;;;;;;;23.51;63.03;99164.34;332698;29;17844;-65
2023/07/19 00:05:37;;;;;;;1.20;0.88;;;;;;;23.50;63.28;99170.66;335649;28;5475;-65
2023/07/19 00:05:49;;;;;;;1.45;1.00;;;;;;;23.49;63.43;99168.97;332029;29;17686;-65
2023/07/19 00:06:01;;;;;;;1.60;1.10;;;;;;;23.48;63.27;99169.97;336166;29;4659;-65
2023/07/19 00:06:13;;;;;;;1.30;1.05;;;;;;;23.44;64.06;99168.59;333771;29;11728;-65
2023/07/19 00:06:25;;;;;;;1.30;1.13;;;;;;;23.45;63.52;99167.59;336149;29;4789;-65
2023/07/19 00:06:37;;;;;;;1.42;1.20;;;;;;;23.45;63.35;99167.59;335275;28;4805;-64
2023/07/19 00:06:49;;;;;;;1.10;1.00;;;;;;;23.45;63.54;99166.75;333746;28;18303;-65
2023/07/19 00:07:02;;;;;;;1.40;1.00;;;;;;;23.45;63.54;99167.59;334826;29;4575;-65
2023/07/19 00:07:14;;;;;;;1.83;1.08;;;;;;;23.46;63.60;99169.28;336316;28;5164;-64
2023/07/19 00:07:26;;;;;;;2.10;1.17;;;;;;;23.45;63.38;99170.25;328965;28;18570;-65
2023/07/19 00:07:38;;;;;;;1.90;1.10;;;;;;;23.44;63.68;99170.38;336541;28;5376;-65
2023/07/19 00:07:50;;;;;;;1.73;1.08;;;;;;;23.42;63.82;99170.53;333146;28;17833;-65
2023/07/19 00:08:03;;;;;;;1.48;1.00;;;;;;;23.41;63.68;99171.50;334922;29;5695;-64
2023/07/19 00:08:15;;;;;;;1.10;0.90;;;;;;;23.42;63.87;99172.34;332395;29;18781;-64
2023/07/19 00:08:28;;;;;;;1.15;0.98;;;;;;;23.40;64.06;99172.50;334802;29;4571;-65
2023/07/19 00:08:40;;;;;;;1.27;1.10;;;;;;;23.42;64.01;99169.69;331756;29;16467;-64
2023/07/19 00:08:52;;;;;;;1.60;1.20;;;;;;;23.41;63.98;99171.50;331486;29;17906;-64
2023/07/19 00:09:04;;;;;;;1.70;1.20;;;;;;;23.43;63.72;99171.38;334612;29;4870;-64
2023/07/19 00:09:16;;;;;;;1.40;1.00;;;;;;;23.42;63.78;99173.19;332095;29;18177;-65
2023/07/19 00:09:28;;;;;;;1.38;1.08;;;;;;;23.41;63.72;99171.50;334499;29;5156;-64
2023/07/19 00:09:39;;;;;;;1.52;1.10;;;;;;;23.41;63.55;99174.16;331246;29;12706;-64
2023/07/19 00:09:51;;;;;;;1.40;1.00;;;;;;;23.41;63.57;99171.50;333764;29;5007;-64
2023/07/19 00:10:05;;;;;;;1.23;1.08;;;;;;;23.41;63.78;99174.16;334227;29;4700;-64
2023/07/19 00:10:17;;;;;;;1.20;1.10;;;;;;;23.41;63.77;99175.97;327491;29;18327;-65
2023/07/19 00:10:29;;;;;;;1.45;1.10;;;;;;;23.40;63.75;99169.84;334773;29;5527;-64
2023/07/19 00:10:41;;;;;;;1.70;1.10;;;;;;;23.36;63.84;99172.91;332682;29;17277;-64
2023/07/19 00:10:53;;;;;;;1.67;1.10;;;;;;;23.38;63.53;99170.94;335060;28;5528;-64
2023/07/19 00:11:05;;;;;;;1.13;1.00;;;;;;;23.38;63.84;99174.47;335534;29;5262;-65
2023/07/19 00:11:17;;;;;;;1.17;1.05;;;;;;;23.38;63.47;99165.66;333567;29;18870;-64
2023/07/19 00:11:30;;;;;;;1.10;1.00;;;;;;;23.37;63.76;99171.94;334818;29;4921;-64
2023/07/19 00:11:42;;;;;;;1.05;0.90;;;;;;;23.36;63.69;99168.44;331142;29;18210;-64
2023/07/19 00:11:54;;;;;;;1.10;0.85;;;;;;;23.36;63.60;99167.59;334159;29;4615;-64
2023/07/19 00:12:07;;;;;;;1.13;1.02;;;;;;;23.37;63.57;99169.28;331408;29;18222;-64
2023/07/19 00:12:18;;;;;;;1.63;1.17;;;;;;;23.37;63.55;99169.28;334643;29;4821;-64
2023/07/19 00:12:32;;;;;;;1.88;1.20;;;;;;;23.35;63.59;99172.09;332253;29;12190;-64
2023/07/19 00:13:04;;;;;;;3.70;1.17;;;;;;;23.34;63.64;99165.09;330293;29;17883;-63
2023/07/19 00:13:16;;;;;;;1.15;0.90;;;;;;;23.33;63.77;99169.56;330009;29;4732;-63
2023/07/19 00:13:28;;;;;;;1.40;1.00;;;;;;;23.33;63.57;99168.75;333554;28;18985;-63
2023/07/19 00:13:40;;;;;;;1.35;1.02;;;;;;;23.32;63.97;99169.69;336438;28;4698;-62
2023/07/19 00:13:52;;;;;;;1.00;0.90;;;;;;;23.29;64.26;99170.00;333382;28;16358;-63
2023/07/19 00:14:05;;;;;;;0.90;0.80;;;;;;;23.27;64.09;99164.00;335369;28;5438;-63
2023/07/19 00:14:18;;;;;;;1.15;0.98;;;;;;;23.27;64.12;99166.66;333995;28;17932;-64
2023/07/19 00:14:30;;;;;;;1.25;1.00;;;;;;;23.26;64.01;99171.13;336564;28;4546;-64
2023/07/19 00:14:42;;;;;;;1.38;1.13;;;;;;;23.24;64.02;99167.78;332857;28;5381;-63
2023/07/19 00:14:54;;;;;;;2.20;1.10;;;;;;;23.22;64.09;99166.25;334927;28;6695;-63
2023/07/19 00:15:07;;;;;;;2.20;1.10;;;;;;;23.22;64.32;99169.75;335633;28;12523;-64
2023/07/19 00:15:19;;;;;;;1.23;1.00;;;;;;;23.21;64.06;99167.22;334552;28;18470;-64
2023/07/19 00:15:31;;;;;;;2.05;1.20;;;;;;;23.19;64.22;99167.38;335404;28;4489;-63
2023/07/19 00:15:43;;;;;;;2.30;1.25;;;;;;;23.17;64.31;99168.50;332922;28;18882;-63
2023/07/19 00:15:55;;;;;;;2.25;1.15;;;;;;;23.17;64.08;99171.16;334361;28;4612;-63
2023/07/19 00:16:07;;;;;;;1.10;1.00;;;;;;;23.17;64.26;99169.31;336201;28;5196;-64
2023/07/19 00:16:19;;;;;;;1.02;0.80;;;;;;;23.16;64.21;99172.13;332771;29;15855;-64
2023/07/19 00:16:33;;;;;;;1.10;0.80;;;;;;;23.15;64.19;99173.94;335580;29;5238;-64
2023/07/19 00:16:45;;;;;;;1.77;0.90;;;;;;;23.13;64.23;99171.41;332741;29;18535;-64
2023/07/19 00:16:57;;;;;;;1.90;1.00;;;;;;;23.13;64.41;99171.41;336602;28;4701;-64
2023/07/19 00:17:09;;;;;;;1.88;1.10;;;;;;;23.13;64.31;99168.78;333505;28;18345;-64
2023/07/19 00:17:21;;;;;;;1.65;1.00;;;;;;;23.13;64.50;99173.25;336297;28;4587;-64
2023/07/19 00:17:33;;;;;;;1.52;0.90;;;;;;;23.12;64.65;99172.41;335681;29;18291;-64
2023/07/19 00:17:45;;;;;;;1.57;0.90;;;;;;;23.11;64.53;99176.03;329166;29;19218;-65
2023/07/19 00:17:57;;;;;;;1.60;1.10;;;;;;;23.11;64.61;99173.38;335722;28;5110;-64
2023/07/19 00:18:09;;;;;;;1.70;1.17;;;;;;;23.10;64.36;99174.38;329273;28;18372;-64
2023/07/19 00:18:21;;;;;;;1.35;1.13;;;;;;;23.07;64.28;99169.34;336241;28;4658;-64
2023/07/19 00:18:33;;;;;;;1.15;1.02;;;;;;;23.07;64.37;99168.50;335679;28;5311;-64
2023/07/19 00:18:46;;;;;;;1.20;1.05;;;;;;;23.07;64.69;99179.94;333821;28;18636;-62
2023/07/19 00:18:58;;;;;;;1.33;1.10;;;;;;;23.06;64.33;99172.97;335785;28;4692;-63
2023/07/19 00:19:29;;;;;;;1.25;1.00;;;;;;;23.06;64.51;99177.44;333634;28;18327;-64
2023/07/19 00:19:41;;;;;;;1.60;1.10;;;;;;;23.05;64.56;99171.28;336310;28;4598;-64
2023/07/19 00:19:53;;;;;;;2.00;1.30;;;;;;;23.05;64.34;99173.94;336299;29;4732;-64
2023/07/19 00:20:06;;;;;;;1.92;1.33;;;;;;;23.04;64.50;99180.25;332875;28;18313;-64
2023/07/19 00:20:18;;;;;;;1.77;1.15;;;;;;;23.03;64.50;99175.91;336237;28;4681;-64
2023/07/19 00:20:30;;;;;;;1.80;1.20;;;;;;;23.04;64.22;99177.59;333687;28;18350;-63
2023/07/19 00:20:42;;;;;;;1.50;1.10;;;;;;;23.04;64.63;99174.09;331825;28;4708;-63
2023/07/19 00:20:55;;;;;;;1.55;1.10;;;;;;;23.02;64.68;99176.91;334123;28;11838;-65
2023/07/19 00:21:07;;;;;;;1.58;1.00;;;;;;;23.02;64.60;99171.59;336129;28;4779;-64
2023/07/19 00:21:19;;;;;;;1.92;1.00;;;;;;;23.00;64.58;99168.22;336321;28;4560;-63
2023/07/19 00:21:31;;;;;;;1.67;1.05;;;;;;;22.99;64.83;99176.31;333673;29;17952;-64
2023/07/19 00:21:43;;;;;;;1.33;1.10;;;;;;;22.98;64.70;99175.47;335872;29;5187;-64
2023/07/19 00:21:55;;;;;;;1.40;1.20;;;;;;;22.98;64.51;99174.63;332815;28;5351;-63
2023/07/19 00:22:08;;;;;;;1.50;1.20;;;;;;;22.98;64.93;99175.47;335928;28;5216;-64
2023/07/19 00:22:20;;;;;;;1.50;1.10;;;;;;;22.95;64.86;99170.44;333851;28;18127;-63
2023/07/19 00:22:32;;;;;;;1.50;1.10;;;;;;;22.93;64.99;99177.69;336385;28;4649;-63
2023/07/19 00:22:45;;;;;;;1.90;1.10;;;;;;;22.93;64.68;99169.75;333459;28;12174;-65
2023/07/19 00:22:56;;;;;;;1.80;1.02;;;;;;;;;;336017;28;4680;-63
2023/07/19 00:23:08;;;;;;;1.88;1.17;;;;;;;22.90;65.21;99167.41;336064;28;5196;-63
2023/07/19 00:23:20;;;;;;;1.20;1.10;;;;;;;22.90;65.12;99167.41;333689;28;18253;-64
2023/07/19 00:23:32;;;;;;;1.52;1.27;;;;;;;22.86;65.13;99171.31;336323;28;4697;-64
2023/07/19 00:23:44;;;;;;;1.48;1.10;;;;;;;22.81;65.63;99173.53;331460;28;4573;-64
2023/07/19 00:23:57;;;;;;;1.55;1.17;;;;;;;22.81;65.77;99168.22;333286;29;18223;-64
2023/07/19 00:24:09;;;;;;;1.92;1.20;;;;;;;22.76;65.51;99166.00;336812;28;5270;-63
2023/07/19 00:24:21;;;;;;;2.30;1.30;;;;;;;22.73;65.87;99160.97;333536;29;19750;-64
2023/07/19 00:24:33;;;;;;;1.77;1.10;;;;;;;22.70;65.80;99174.50;335855;29;4681;-64
2023/07/19 00:24:45;;;;;;;1.55;1.15;;;;;;;22.53;66.59;99166.25;333689;29;4766;-64
2023/07/19 00:24:57;;;;;;;1.45;1.10;;;;;;;22.54;66.72;99167.94;336191;28;5321;-64
2023/07/19 00:25:09;;;;;;;1.52;1.15;;;;;;;22.56;66.05;99166.94;335597;29;4611;-64
2023/07/19 00:25:21;;;;;;;1.88;1.20;;;;;;;22.55;66.55;99160.81;328928;29;19186;-65
2023/07/19 00:25:33;;;;;;;1.90;1.30;;;;;;;22.53;66.94;99160.13;333342;29;5621;-62
2023/07/19 00:25:45;;;;;;;2.03;1.30;;;;;;;22.51;66.92;99160.25;332213;28;11559;-64
2023/07/19 00:25:57;;;;;;;2.40;1.30;;;;;;;22.53;66.91;99162.78;334416;29;5403;-63
2023/07/19 00:26:09;;;;;;;1.80;1.13;;;;;;;22.52;66.67;99158.47;335300;28;5443;-64
2023/07/19 00:26:21;;;;;;;1.13;1.00;;;;;;;22.50;66.56;99158.59;333338;28;18363;-64
2023/07/19 00:26:33;;;;;;;1.30;1.02;;;;;;;22.48;67.30;99162.38;331764;29;4647;-64
2023/07/19 00:26:45;;;;;;;1.83;1.30;;;;;;;22.45;67.09;99157.34;337515;28;4794;-64
2023/07/19 00:26:58;;;;;;;1.50;1.15;;;;;;;22.42;67.25;99160.28;330264;29;17962;-64
2023/07/19 00:27:09;;;;;;;1.23;0.98;;;;;;;22.41;67.05;99158.59;336411;28;4564;-64
2023/07/19 00:27:21;;;;;;;1.05;0.95;;;;;;;22.39;67.55;99155.25;333795;28;12172;-64
2023/07/19 00:27:33;;;;;;;1.70;0.98;;;;;;;22.42;67.14;99157.63;335641;28;4678;-64
2023/07/19 00:27:48;;;;;;;1.83;1.10;;;;;;;22.40;67.22;99154.28;333782;28;6545;-64
2023/07/19 00:28:00;;;;;;;1.85;1.20;;;;;;;22.39;67.42;99155.25;333443;28;18462;-63
2023/07/19 00:28:12;;;;;;;1.87;1.17;;;;;;;22.41;67.42;99155.94;329055;28;5211;-64
2023/07/19 00:28:24;;;;;;;1.75;1.17;;;;;;;22.41;67.40;99158.59;336236;28;4702;-63
2023/07/19 00:28:36;;;;;;;1.88;1.20;;;;;;;22.43;67.14;99156.63;336403;28;5178;-64
2023/07/19 00:28:48;;;;;;;2.00;1.10;;;;;;;22.45;67.30;99157.34;333663;28;18321;-62
2023/07/19 00:29:00;;;;;;;1.60;1.15;;;;;;;22.46;67.42;99151.06;335080;28;4542;-62
2023/07/19 00:29:12;;;;;;;1.30;1.15;;;;;;;22.45;67.65;99152.88;333729;28;9541;-63
2023/07/19 00:29:25;;;;;;;2.20;1.10;;;;;;;22.44;68.16;99153.03;335242;28;4658;-62
2023/07/19 00:29:36;;;;;;;2.15;1.10;;;;;;;22.46;67.74;99159.03;334738;28;5856;-62
2023/07/19 00:29:48;;;;;;;1.25;1.10;;;;;;;22.48;67.37;99154.41;332529;29;11474;-63
2023/07/19 00:30:00;;;;;;;1.40;0.98;;;;;;;22.48;67.43;99147.31;336062;28;5381;-62
2023/07/19 00:30:13;;;;;;;2.25;0.90;;;;;;;22.50;67.42;99160.41;336121;28;5403;-63
2023/07/19 00:30:25;;;;;;;2.22;1.00;;;;;;;22.51;67.46;99151.47;332872;29;18229;-63
2023/07/19 00:30:38;;;;;;;2.40;1.10;;;;;;;22.53;67.30;99157.47;335093;28;5198;-64
2023/07/19 00:30:59;;;;;;;1.63;1.08;;;;;;;22.55;67.24;99152.88;333208;28;18121;-64
2023/07/19 00:31:11;;;;;;;1.58;1.00;;;;;;;22.55;67.35;99158.16;332393;28;17831;-63
2023/07/19 00:31:23;;;;;;;1.58;1.10;;;;;;;22.56;67.46;99153.72;336089;28;5156;-63
2023/07/19 00:31:35;;;;;;;1.65;1.10;;;;;;;22.57;67.35;99155.41;333133;28;19015;-64
2023/07/19 00:31:47;;;;;;;1.58;1.00;;;;;;;22.56;67.51;99161.66;336154;28;5257;-63
2023/07/19 00:31:59;;;;;;;1.67;1.10;;;;;;;22.54;67.31;99157.34;332517;28;12244;-64
2023/07/19 00:32:11;;;;;;;1.38;1.05;;;;;;;22.56;67.22;99153.72;335503;28;5265;-63
2023/07/19 00:32:23;;;;;;;1.30;1.20;;;;;;;22.56;66.99;99159.88;336340;28;5213;-63
2023/07/19 00:32:35;;;;;;;1.27;1.17;;;;;;;22.52;67.11;99155.81;333581;28;11991;-64
2023/07/19 00:32:47;;;;;;;1.30;1.05;;;;;;;22.52;66.97;99159.28;334771;29;5377;-64
2023/07/19 00:32:59;;;;;;;1.63;1.05;;;;;;;22.53;67.34;99155.66;336178;28;4593;-62
2023/07/19 00:33:11;;;;;;;1.80;1.15;;;;;;;22.54;66.95;99154.69;333519;28;16889;-64
2023/07/19 00:33:23;;;;;;;1.38;1.20;;;;;;;22.56;67.22;99159.88;336031;28;5410;-63
2023/07/19 00:33:35;;;;;;;1.95;1.25;;;;;;;22.54;67.26;99162.66;333382;28;17915;-63
2023/07/19 00:33:47;;;;;;;2.08;1.27;;;;;;;22.51;67.45;99156.78;336455;28;5236;-63
2023/07/19 00:33:59;;;;;;;1.77;1.30;;;;;;;22.45;67.76;99154.69;335872;28;13373;-64
2023/07/19 00:34:11;;;;;;;1.50;1.20;;;;;;;22.41;67.86;99158.59;333990;28;18481;-64
2023/07/19 00:34:23;;;;;;;1.75;1.30;;;;;;;22.42;67.50;99158.44;336173;28;4747;-64
2023/07/19 00:34:36;;;;;;;1.50;1.27;;;;;;;22.43;67.28;99154.00;333797;28;16572;-64
2023/07/19 00:34:48;;;;;;;1.17;1.08;;;;;;;22.45;67.36;99155.50;336342;28;5182;-63
2023/07/19 00:35:00;;;;;;;1.08;0.98;;;;;;;22.46;67.14;99153.72;335948;28;4588;-64
2023/07/19 00:35:12;;;;;;;1.48;1.10;;;;;;;22.50;67.42;99155.94;333131;28;19289;-64
2023/07/19 00:35:24;;;;;;;1.63;1.23;;;;;;;22.49;67.42;99150.78;336452;28;5418;-64
2023/07/19 00:35:42;;;;;;;1.52;1.27;;;;;;;22.51;67.33;99152.31;332660;28;17090;-64
2023/07/19 00:35:54;;;;;;;1.02;0.93;;;;;;;22.52;67.76;99150.53;333127;28;16396;-64
2023/07/19 00:36:06;;;;;;;1.10;1.00;;;;;;;22.50;67.81;99153.31;332498;28;17846;-64
2023/07/19 00:36:18;;;;;;;1.25;1.15;;;;;;;22.54;67.52;99151.22;336733;28;4485;-63
2023/07/19 00:36:30;;;;;;;1.30;1.20;;;;;;;22.57;67.60;99147.44;336194;28;4736;-64
2023/07/19 00:36:42;;;;;;;1.83;1.23;;;;;;;22.58;67.84;99146.47;333667;28;17933;-63
2023/07/19 00:36:54;;;;;;;1.80;1.10;;;;;;;22.58;67.30;99142.03;336288;28;4564;-63
2023/07/19 00:37:06;;;;;;;1.60;1.15;;;;;;;22.60;67.69;99144.53;334314;28;6797;-64
2023/07/19 00:37:18;;;;;;;1.42;1.23;;;;;;;22.61;67.71;99146.19;330021;28;17565;-62
2023/07/19 00:37:30;;;;;;;1.58;1.17;;;;;;;22.58;67.98;99147.31;336161;28;4709;-63
2023/07/19 00:37:43;;;;;;;1.60;1.13;;;;;;;22.61;67.75;99144.38;333755;28;10891;-63
2023/07/19 00:37:55;;;;;;;2.85;1.20;;;;;;;22.58;67.93;99152.63;335381;28;4576;-63
2023/07/19 00:38:07;;;;;;;3.20;1.27;;;;;;;22.60;67.64;99148.00;332944;29;17515;-63
2023/07/19 00:38:21;;;;;;;3.20;1.17;;;;;;;22.61;67.14;99149.66;334958;29;4695;-64
2023/07/19 00:38:33;;;;;;;2.50;1.15;;;;;;;22.60;67.51;99145.38;333115;28;18477;-64
2023/07/19 00:38:46;;;;;;;2.10;1.13;;;;;;;22.62;67.20;99142.59;336484;28;4675;-64
2023/07/19 00:38:58;;;;;;;1.10;1.00;;;;;;;22.65;67.45;99147.59;332986;28;16639;-63
2023/07/19 00:39:10;;;;;;;1.30;1.02;;;;;;;22.64;67.40;99146.75;335800;28;4811;-63
2023/07/19 00:39:22;;;;;;;1.50;1.10;;;;;;;22.65;67.42;99153.72;333514;29;17918;-62
2023/07/19 00:39:34;;;;;;;1.40;1.20;;;;;;;22.67;67.28;99149.09;335316;28;5715;-63
2023/07/19 00:39:46;;;;;;;1.25;1.13;;;;;;;22.68;67.56;99148.16;333651;28;4952;-64
2023/07/19 00:39:58;;;;;;;1.10;1.00;;;;;;;22.70;66.93;99151.50;336395;28;5035;-63
2023/07/19 00:40:11;;;;;;;1.73;1.02;;;;;;;22.72;67.10;99154.00;331216;28;4583;-64
2023/07/19 00:40:23;;;;;;;3.30;1.10;;;;;;;22.74;67.06;99149.41;333441;28;16339;-63
2023/07/19 00:40:35;;;;;;;3.47;1.17;;;;;;;22.75;67.10;99145.75;335759;28;4663;-63
2023/07/19 00:40:50;;;;;;;1.70;1.00;;;;;;;22.76;66.91;99146.59;336035;28;5554;-62
2023/07/19 00:41:02;;;;;;;1.80;1.00;;;;;;;22.77;66.64;99150.94;335446;28;17761;-64
2023/07/19 00:41:14;;;;;;;1.77;0.93;;;;;;;22.77;66.50;99151.75;334512;28;18648;-63
2023/07/19 00:41:26;;;;;;;1.77;1.02;;;;;;;22.79;66.54;99151.63;336762;28;4866;-63
2023/07/19 00:41:39;;;;;;;1.50;1.00;;;;;;;22.80;66.65;99150.63;336697;28;4791;-64
2023/07/19 00:41:51;;;;;;;1.67;1.00;;;;;;;22.81;66.24;99147.03;330116;28;16941;-63
2023/07/19 00:42:03;;;;;;;1.75;1.02;;;;;;;22.81;66.54;99147.03;334630;29;4634;-63
2023/07/19 00:42:15;;;;;;;1.75;1.33;;;;;;;22.82;66.22;99151.34;332339;29;19073;-64
2023/07/19 00:42:27;;;;;;;2.10;1.50;;;;;;;22.81;66.46;99150.50;335096;29;5423;-64
2023/07/19 00:42:39;;;;;;;2.20;1.58;;;;;;;22.82;66.37;99148.69;329303;28;4778;-63
2023/07/19 00:42:56;;;;;;;2.60;1.60;;;;;;;22.82;66.32;99148.69;335553;28;7863;-63
2023/07/19 00:43:10;;;;;;;2.65;1.52;;;;;;;22.82;66.14;99148.69;332836;28;18941;-63
2023/07/19 00:43:21;;;;;;;1.58;1.20;;;;;;;22.81;66.11;99150.50;329061;29;18298;-63
2023/07/19 00:43:33;;;;;;;1.23;1.00;;;;;;;22.81;66.25;99147.84;336242;29;4828;-64
2023/07/19 00:43:47;;;;;;;1.20;1.00;;;;;;;22.82;66.11;99146.03;330635;29;17827;-62
2023/07/19 00:43:59;;;;;;;1.42;1.10;;;;;;;22.81;66.19;99147.03;333941;28;4644;-64
2023/07/19 00:44:11;;;;;;;1.23;1.00;;;;;;;22.80;66.41;99146.19;335907;28;18235;-63
2023/07/19 00:44:23;;;;;;;1.23;1.00;;;;;;;22.80;66.57;99148.00;337443;28;4810;-64
2023/07/19 00:44:35;;;;;;;1.10;0.85;;;;;;;22.80;66.24;99140.03;334982;28;18113;-64
2023/07/19 00:44:47;;;;;;;1.00;0.80;;;;;;;22.77;66.18;99141.16;331090;28;4736;-64
2023/07/19 00:45:13;;;;;;;1.10;1.00;;;;;;;22.77;66.28;99149.13;329382;29;16414;-63
2023/07/19 00:46:00;;;;;;;1.17;1.00;;;;;;;22.73;66.46;99145.91;329417;29;18139;-63
2023/07/19 00:46:30;;;;;;;1.90;1.00;;;;;;;22.68;66.83;99150.78;328154;29;18276;-65
2023/07/19 00:46:42;;;;;;;1.38;0.88;;;;;;;22.70;66.87;99145.38;331576;29;4589;-63
2023/07/19 00:46:55;;;;;;;1.08;0.90;;;;;;;22.69;66.61;99148.97;332054;29;4740;-64
2023/07/19 00:47:07;;;;;;;1.43;1.10;;;;;;;22.63;67.40;99146.88;328542;29;18511;-63
2023/07/19 00:47:19;;;;;;;1.80;1.30;;;;;;;22.59;67.59;99148.16;332094;29;4702;-64
2023/07/19 00:47:33;;;;;;;1.57;1.23;;;;;;;22.59;67.51;99148.16;329354;29;16370;-65
2023/07/19 00:47:45;;;;;;;1.30;1.10;;;;;;;22.57;67.03;99145.63;333438;28;4539;-64
2023/07/19 00:47:57;;;;;;;1.35;1.13;;;;;;;22.57;67.34;99150.91;328946;29;16210;-64
2023/07/19 00:48:09;;;;;;;1.27;1.13;;;;;;;22.58;67.00;99147.31;335912;29;4679;-63
2023/07/19 00:48:21;;;;;;;1.48;1.20;;;;;;;22.56;67.56;99145.75;336181;28;4843;-64
2023/07/19 00:48:33;;;;;;;2.40;1.25;;;;;;;22.56;67.58;99149.25;331405;28;17281;-64
2023/07/19 00:48:48;;;;;;;2.28;1.10;;;;;;;22.56;67.57;99143.97;332639;28;18162;-64
2023/07/19 00:49:01;;;;;;;1.98;1.02;;;;;;;22.56;67.11;99149.25;336429;28;4520;-64
2023/07/19 00:49:13;;;;;;;2.63;1.05;;;;;;;22.55;67.39;99147.56;333365;29;18357;-65
2023/07/19 00:49:25;;;;;;;1.52;0.90;;;;;;;22.54;67.62;99146.75;335857;29;4587;-64
2023/07/19 00:49:40;;;;;;;1.48;0.90;;;;;;;22.54;67.58;99145.91;331591;29;4626;-63
2023/07/19 00:49:52;;;;;;;1.17;1.00;;;;;;;22.54;67.57;99151.22;333706;28;17805;-64
2023/07/19 00:50:06;;;;;;;1.40;1.00;;;;;;;22.53;67.51;99144.22;332693;29;18246;-63
2023/07/19 00:50:18;;;;;;;1.20;0.90;;;;;;;22.52;67.49;99147.88;333609;29;10463;-63
2023/07/19 00:50:30;;;;;;;1.13;0.90;;;;;;;22.51;67.44;99146.19;335666;28;4697;-63
2023/07/19 00:50:43;;;;;;;1.33;1.00;;;;;;;22.51;67.42;99148.84;333648;28;12256;-65
2023/07/19 00:50:55;;;;;;;1.23;0.95;;;;;;;22.50;67.78;99147.19;335477;28;4699;-63
2023/07/19 00:51:07;;;;;;;1.45;1.00;;;;;;;22.50;67.89;99152.47;335991;28;4603;-63
2023/07/19 00:51:20;;;;;;;1.60;1.02;;;;;;;22.50;67.58;99149.81;333821;28;18174;-63
2023/07/19 00:51:33;;;;;;;1.77;1.10;;;;;;;22.49;67.57;99148.13;336246;28;4533;-63
2023/07/19 00:51:46;;;;;;;1.90;0.90;;;;;;;22.49;67.41;99156.06;333484;29;18300;-64
2023/07/19 00:52:02;;;;;;;1.80;0.80;;;;;;;22.49;68.07;99156.06;335212;28;4681;-64
2023/07/19 00:52:15;;;;;;;1.35;0.80;;;;;;;22.47;67.85;99152.72;333516;28;17732;-63
2023/07/19 00:52:27;;;;;;;1.40;1.00;;;;;;;22.46;67.46;99153.72;335876;28;4691;-63
2023/07/19 00:52:40;;;;;;;1.40;1.10;;;;;;;22.46;67.29;99154.56;334798;28;11892;-64
2023/07/19 00:52:52;;;;;;;1.20;1.10;;;;;;;22.47;67.42;99158.03;333517;28;19481;-64
2023/07/19 00:53:05;;;;;;;1.65;1.17;;;;;;;22.47;67.55;99155.38;336238;28;4638;-64
2023/07/19 00:53:18;;;;;;;1.80;1.20;;;;;;;22.46;67.36;99164.31;331939;29;18196;-64
2023/07/19 00:53:32;;;;;;;1.60;1.10;;;;;;;22.42;67.44;99157.63;333231;29;18767;-63
2023/07/19 00:53:47;;;;;;;1.27;0.95;;;;;;;22.40;68.32;99156.94;336304;29;4808;-64
2023/07/19 00:53:59;;;;;;;1.10;0.90;;;;;;;22.33;69.17;99154.81;333390;29;16477;-63
2023/07/19 00:54:12;;;;;;;1.23;1.02;;;;;;;22.37;68.30;99149.25;333472;28;17118;-63
2023/07/19 00:54:24;;;;;;;1.20;1.10;;;;;;;22.36;67.84;99159.00;331207;28;4944;-64
2023/07/19 00:54:37;;;;;;;1.15;1.02;;;;;;;22.35;68.15;99157.31;333537;28;17983;-64
2023/07/19 00:54:49;;;;;;;2.70;1.00;;;;;;;22.37;68.13;99159.84;335658;28;5350;-63
2023/07/19 00:55:01;;;;;;;3.10;1.00;;;;;;;22.38;67.67;99157.06;333242;28;17721;-64
2023/07/19 00:55:14;;;;;;;2.90;1.10;;;;;;;22.39;67.79;99150.78;336047;29;5470;-63
2023/07/19 00:55:26;;;;;;;1.58;1.00;;;;;;;22.36;67.71;99158.19;332459;29;16803;-64
2023/07/19 00:55:38;;;;;;;1.70;1.00;;;;;;;22.38;67.87;99156.22;328636;29;4947;-64
2023/07/19 00:55:51;;;;;;;1.40;1.00;;;;;;;22.40;67.73;99162.22;331043;29;11902;-65
2023/07/19 00:56:03;;;;;;;1.10;1.00;;;;;;;22.40;67.73;99160.41;334648;29;4710;-64
2023/07/19 00:56:17;;;;;;;1.00;0.90;;;;;;;22.40;67.51;99160.41;332436;28;11850;-64
2023/07/19 00:56:29;;;;;;;1.15;0.90;;;;;;;22.41;67.71;99161.22;334870;29;4668;-66
2023/07/19 00:56:43;;;;;;;1.08;0.80;;;;;;;22.41;67.58;99158.59;331887;29;17824;-64
2023/07/19 00:56:56;;;;;;;1.23;0.90;;;;;;;22.42;67.47;99162.91;334510;28;4634;-64
2023/07/19 00:57:09;;;;;;;1.48;1.08;;;;;;;22.41;67.75;99162.06;330825;29;18162;-64
2023/07/19 00:57:21;;;;;;;1.65;1.27;;;;;;;22.38;67.43;99159.69;329339;29;4615;-64
2023/07/19 00:57:34;;;;;;;1.73;1.30;;;;;;;22.38;67.32;99161.53;332161;29;18003;-64
2023/07/19 00:57:46;;;;;;;1.40;1.13;;;;;;;22.36;67.29;99163.47;335166;28;4907;-64
2023/07/19 00:57:58;;;;;;;1.25;1.05;;;;;;;22.34;67.47;99161.78;332880;28;18543;-64
2023/07/19 00:58:10;;;;;;;1.23;1.10;;;;;;;22.31;67.84;99162.03;335873;28;4717;-64
2023/07/19 00:58:23;;;;;;;1.20;1.10;;;;;;;22.31;67.88;99166.50;333194;28;17818;-64
2023/07/19 00:58:36;;;;;;;2.13;1.20;;;;;;;22.31;67.92;99159.41;329820;29;4688;-64
2023/07/19 00:58:52;;;;;;;2.80;1.20;;;;;;;22.30;67.88;99160.38;332162;29;18834;-63
2023/07/19 00:59:04;;;;;;;2.03;1.23;;;;;;;22.29;67.53;99166.63;332144;29;17958;-63
2023/07/19 00:59:19;;;;;;;1.40;1.15;;;;;;;22.26;68.00;99172.22;332872;29;4714;-63
2023/07/19 00:59:32;;;;;;;1.33;1.05;;;;;;;22.25;67.76;99167.88;335631;28;4562;-64
2023/07/19 00:59:45;;;;;;;1.92;1.20;;;;;;;22.24;67.75;99160.09;333603;29;18522;-64
2023/07/19 00:59:57;;;;;;;1.95;1.27;;;;;;;22.24;67.62;99168.06;335126;29;16352;-64
2023/07/19 01:00:09;;;;;;;2.08;1.20;;;;;;;22.22;67.67;99162.84;328465;28;18081;-64
2023/07/19 01:00:22;;;;;;;1.90;1.30;;;;;;;22.22;67.50;99170.78;335525;29;5050;-65
2023/07/19 01:00:34;;;;;;;2.30;1.40;;;;;;;22.23;67.55;99159.22;333226;29;17979;-64
2023/07/19 01:00:46;;;;;;;1.88;1.30;;;;;;;22.22;67.62;99165.50;336360;28;5555;-64
2023/07/19 01:00:59;;;;;;;1.65;1.20;;;;;;;22.21;67.80;99163.81;333450;28;5200;-64
2023/07/19 01:01:11;;;;;;;1.20;1.10;;;;;;;22.21;67.65;99166.44;336091;28;5984;-64